Time;durP1;ratioP1;P1;durP2;ratioP2;P2;SDS_P1;SDS_P2;PMS_P1;PMS_P2;Temp;Humidity;BMP_temperature;BMP_pressure;BME280_temperature;BME280_humidity;BME280_pressure;Samples;Min_cycle;Max_cycle;Signal;HPM_P1;HPM_P2
2023/04/23 00:01:01;;;;;;;117.30;62.20;;;;;;;;;;5025653;28;20028;-73
2023/04/23 00:03:27;;;;;;;106.82;59.58;;;;;;;;;;5045603;28;20105;-73
2023/04/23 00:05:56;;;;;;;104.25;58.22;;;;;;;;;;5043571;28;20047;-73
2023/04/23 00:08:22;;;;;;;104.78;59.47;;;;;;;;;;5029403;28;20039;-72
2023/04/23 00:10:47;;;;;;;108.70;59.90;;;;;;;;;;5047101;28;20059;-75
2023/04/23 00:13:16;;;;;;;112.65;58.88;;;;;;;;;;5028273;28;20112;-73
2023/04/23 00:15:41;;;;;;;103.05;59.50;;;;;;;;;;5019718;28;21258;-73
2023/04/23 00:18:06;;;;;;;106.15;59.60;;;;;;;;;;5042647;28;20035;-74
2023/04/23 00:20:33;;;;;;;107.65;59.28;;;;;;;;;;5033177;28;20078;-73
2023/04/23 00:22:58;;;;;;;107.90;58.92;;;;;;;;;;5046562;28;20070;-73
2023/04/23 00:25:23;;;;;;;108.22;59.53;;;;;;;;;;5046768;28;20153;-74
2023/04/23 00:27:48;;;;;;;102.20;57.55;;;;;;;;;;5025632;28;20040;-73
2023/04/23 00:30:15;;;;;;;100.65;57.35;;;;;;;;;;5045518;28;20044;-73
2023/04/23 00:32:41;;;;;;;102.22;55.92;;;;;;;;;;5045165;28;20107;-73
2023/04/23 00:35:07;;;;;;;103.45;57.60;;;;;;;;;;5043385;28;20037;-74
2023/04/23 00:37:32;;;;;;;98.70;56.47;;;;;;;;;;5029780;28;21188;-72
2023/04/23 00:39:57;;;;;;;98.57;56.15;;;;;;;;;;5045124;28;20199;-72
2023/04/23 00:42:25;;;;;;;103.15;57.30;;;;;;;;;;5043298;28;20039;-74
2023/04/23 00:44:51;;;;;;;102.57;56.15;;;;;;;;;;5045183;28;20036;-72
2023/04/23 00:47:19;;;;;;;101.20;57.65;;;;;;;;;;5043617;28;20088;-72
2023/04/23 00:49:45;;;;;;;98.60;56.10;;;;;;;;;;5042115;28;20028;-72
2023/04/23 00:52:10;;;;;;;96.20;55.85;;;;;;;;;;5022013;28;20832;-73
2023/04/23 00:54:37;;;;;;;101.32;58.60;;;;;;;;;;5014362;28;20036;-73
2023/04/23 00:57:03;;;;;;;96.40;55.78;;;;;;;;;;5045653;28;21115;-73
2023/04/23 00:59:30;;;;;;;102.30;59.83;;;;;;;;;;5044350;28;20777;-71
2023/04/23 01:01:55;;;;;;;98.13;57.05;;;;;;;;;;5044895;28;20028;-71
2023/04/23 01:04:21;;;;;;;96.32;56.13;;;;;;;;;;5044622;28;20040;-71
2023/04/23 01:06:47;;;;;;;95.20;57.53;;;;;;;;;;5023555;28;20024;-74
2023/04/23 01:09:16;;;;;;;97.38;57.28;;;;;;;;;;5044814;28;20113;-72
2023/04/23 01:11:42;;;;;;;96.75;56.78;;;;;;;;;;5044666;28;20036;-73
2023/04/23 01:14:10;;;;;;;99.25;58.85;;;;;;;;;;5032283;28;20054;-72
2023/04/23 01:16:37;;;;;;;97.63;57.58;;;;;;;;;;5043975;28;20151;-72
2023/04/23 01:19:04;;;;;;;91.03;55.65;;;;;;;;;;5043654;28;20040;-73
2023/04/23 01:21:35;;;;;;;100.57;57.75;;;;;;;;;;5041785;28;20107;-73
2023/04/23 01:24:04;;;;;;;93.22;55.75;;;;;;;;;;5041010;28;20093;-73
2023/04/23 01:26:29;;;;;;;92.85;54.75;;;;;;;;;;5045986;28;20675;-72
2023/04/23 01:28:55;;;;;;;94.55;56.25;;;;;;;;;;5025346;28;20048;-72
2023/04/23 01:31:20;;;;;;;102.75;58.65;;;;;;;;;;5043761;28;20040;-71
2023/04/23 01:33:48;;;;;;;99.45;58.38;;;;;;;;;;5027094;28;20779;-72
2023/04/23 01:36:13;;;;;;;100.72;57.22;;;;;;;;;;5045654;28;20047;-71
2023/04/23 01:38:41;;;;;;;109.38;61.58;;;;;;;;;;5044248;28;20892;-72
2023/04/23 01:41:09;;;;;;;107.63;61.80;;;;;;;;;;5044938;28;20816;-73
2023/04/23 01:43:34;;;;;;;121.75;65.65;;;;;;;;;;5026728;28;20043;-73
2023/04/23 01:46:00;;;;;;;114.53;64.43;;;;;;;;;;5046063;28;20041;-73
2023/04/23 01:48:25;;;;;;;114.05;64.80;;;;;;;;;;5027893;28;20121;-74
2023/04/23 01:50:51;;;;;;;113.63;63.60;;;;;;;;;;5049070;28;20677;-72
2023/04/23 01:53:16;;;;;;;111.07;62.40;;;;;;;;;;5030865;28;20113;-72
2023/04/23 01:55:42;;;;;;;115.88;63.10;;;;;;;;;;5050368;28;20032;-73
2023/04/23 01:58:08;;;;;;;114.75;63.42;;;;;;;;;;5048608;28;20067;-72
2023/04/23 02:00:35;;;;;;;111.60;62.28;;;;;;;;;;5032030;28;20035;-72
2023/04/23 02:03:04;;;;;;;123.05;66.75;;;;;;;;;;5031250;28;20032;-71
2023/04/23 02:05:33;;;;;;;115.82;65.85;;;;;;;;;;5029497;28;20101;-72
2023/04/23 02:07:58;;;;;;;112.75;64.07;;;;;;;;;;5026159;28;20117;-72
2023/04/23 02:10:26;;;;;;;112.95;63.25;;;;;;;;;;5008885;28;20036;-73
2023/04/23 02:12:51;;;;;;;107.63;60.22;;;;;;;;;;5030371;28;20032;-73
2023/04/23 02:15:18;;;;;;;116.03;65.07;;;;;;;;;;5049674;28;21208;-72
2023/04/23 02:17:44;;;;;;;112.05;63.33;;;;;;;;;;5046715;28;20054;-72
2023/04/23 02:20:09;;;;;;;109.45;62.95;;;;;;;;;;5046406;28;20043;-71
2023/04/23 02:22:38;;;;;;;103.78;61.10;;;;;;;;;;5033680;28;20525;-72
2023/04/23 02:25:04;;;;;;;108.75;62.80;;;;;;;;;;5047003;28;20043;-72
2023/04/23 02:27:35;;;;;;;109.32;64.40;;;;;;;;;;5049983;28;20583;-70
2023/04/23 02:30:01;;;;;;;114.20;65.63;;;;;;;;;;5049055;28;20056;-73
2023/04/23 02:32:26;;;;;;;105.75;63.00;;;;;;;;;;5033565;28;20088;-74
2023/04/23 02:34:52;;;;;;;106.38;59.30;;;;;;;;;;5048408;28;20040;-72
2023/04/23 02:37:17;;;;;;;102.40;59.55;;;;;;;;;;5047560;28;20155;-73
2023/04/23 02:39:43;;;;;;;94.40;54.83;;;;;;;;;;5048775;28;20040;-72
2023/04/23 02:42:10;;;;;;;90.80;53.72;;;;;;;;;;5034231;28;20040;-72
2023/04/23 02:44:35;;;;;;;88.93;52.38;;;;;;;;;;5047774;28;20192;-71
2023/04/23 02:47:01;;;;;;;77.63;47.70;;;;;;;;;;5046675;28;20127;-71
2023/04/23 02:49:26;;;;;;;78.18;47.88;;;;;;;;;;5047377;28;20979;-72
2023/04/23 02:51:51;;;;;;;72.15;45.08;;;;;;;;;;5048452;28;20044;-72
2023/04/23 02:54:17;;;;;;;78.25;45.63;;;;;;;;;;5046760;28;20169;-71
2023/04/23 02:56:42;;;;;;;70.93;44.10;;;;;;;;;;5030098;28;20082;-72
2023/04/23 02:59:10;;;;;;;72.07;44.50;;;;;;;;;;5012844;28;20076;-72
2023/04/23 03:01:35;;;;;;;67.95;41.90;;;;;;;;;;5047242;28;20062;-72
2023/04/23 03:04:02;;;;;;;80.97;46.47;;;;;;;;;;5028886;28;20041;-73
2023/04/23 03:06:27;;;;;;;84.15;47.40;;;;;;;;;;5033209;28;20032;-72
2023/04/23 03:08:53;;;;;;;75.63;45.17;;;;;;;;;;5037929;28;20769;-72
2023/04/23 03:11:18;;;;;;;75.40;44.70;;;;;;;;;;5047828;28;20889;-72
2023/04/23 03:13:43;;;;;;;80.32;45.53;;;;;;;;;;5045959;28;20078;-72
2023/04/23 03:16:09;;;;;;;89.13;49.30;;;;;;;;;;5049239;28;20043;-74
2023/04/23 03:18:34;;;;;;;83.50;48.35;;;;;;;;;;5055175;28;20039;-73
2023/04/23 03:21:02;;;;;;;86.50;48.72;;;;;;;;;;5030248;28;20024;-75
2023/04/23 03:23:27;;;;;;;83.22;47.85;;;;;;;;;;5043873;28;20040;-74
2023/04/23 03:25:52;;;;;;;74.57;46.42;;;;;;;;;;5041147;28;20159;-74
2023/04/23 03:28:17;;;;;;;85.03;45.72;;;;;;;;;;5042470;28;20745;-74
2023/04/23 03:30:45;;;;;;;76.22;46.25;;;;;;;;;;5043107;28;20032;-74
2023/04/23 03:33:10;;;;;;;74.97;46.30;;;;;;;;;;5026404;28;20040;-74
2023/04/23 03:35:36;;;;;;;88.75;49.90;;;;;;;;;;5044783;28;20040;-74
2023/04/23 03:38:01;;;;;;;85.90;49.03;;;;;;;;;;5047928;28;20837;-74
2023/04/23 03:40:26;;;;;;;84.95;49.30;;;;;;;;;;5044972;28;20047;-75
2023/04/23 03:42:52;;;;;;;84.93;49.35;;;;;;;;;;5045562;28;20058;-73
2023/04/23 03:45:17;;;;;;;88.03;50.33;;;;;;;;;;5045676;28;20036;-73
2023/04/23 03:47:45;;;;;;;86.90;50.50;;;;;;;;;;5044918;28;20067;-71
2023/04/23 03:50:16;;;;;;;94.00;53.20;;;;;;;;;;5024014;28;20123;-74
2023/04/23 03:52:43;;;;;;;96.20;54.75;;;;;;;;;;5045301;28;20039;-73
2023/04/23 03:55:09;;;;;;;100.50;55.42;;;;;;;;;;5047035;28;20437;-73
2023/04/23 03:57:42;;;;;;;110.00;61.92;;;;;;;;;;5047204;28;20047;-74
2023/04/23 04:00:10;;;;;;;108.07;59.17;;;;;;;;;;5044102;28;20800;-74
2023/04/23 04:02:36;;;;;;;107.20;59.70;;;;;;;;;;5045825;28;20140;-74
2023/04/23 04:05:04;;;;;;;112.55;62.65;;;;;;;;;;5048969;28;20035;-75
2023/04/23 04:07:30;;;;;;;110.13;61.47;;;;;;;;;;5036552;28;20032;-74
2023/04/23 04:09:55;;;;;;;112.97;61.72;;;;;;;;;;5031812;28;20044;-74
2023/04/23 04:12:20;;;;;;;107.88;59.85;;;;;;;;;;5046599;28;20036;-75
2023/04/23 04:14:45;;;;;;;101.95;57.03;;;;;;;;;;5049276;28;20120;-75
2023/04/23 04:17:11;;;;;;;101.50;56.78;;;;;;;;;;5022920;28;21056;-75
2023/04/23 04:19:37;;;;;;;107.88;60.08;;;;;;;;;;5022298;28;20035;-75
2023/04/23 04:22:02;;;;;;;102.65;58.00;;;;;;;;;;5045469;28;20751;-74
2023/04/23 04:24:31;;;;;;;110.78;59.65;;;;;;;;;;5045145;28;20084;-76
2023/04/23 04:27:00;;;;;;;114.85;60.75;;;;;;;;;;5046406;28;20036;-75
2023/04/23 04:29:25;;;;;;;108.68;59.15;;;;;;;;;;5044591;28;20637;-74
2023/04/23 04:31:51;;;;;;;93.97;52.83;;;;;;;;;;5045712;28;20028;-75
2023/04/23 04:34:19;;;;;;;85.95;50.83;;;;;;;;;;5044740;28;20131;-74
2023/04/23 04:36:46;;;;;;;87.80;52.63;;;;;;;;;;5043925;28;20100;-74
2023/04/23 04:39:13;;;;;;;93.47;54.60;;;;;;;;;;5043000;28;20039;-76
2023/04/23 04:41:39;;;;;;;111.70;62.03;;;;;;;;;;5025954;28;20036;-73
2023/04/23 04:44:06;;;;;;;115.55;61.03;;;;;;;;;;5043781;28;20113;-75
2023/04/23 04:46:32;;;;;;;106.55;61.17;;;;;;;;;;5020705;28;20036;-74
2023/04/23 04:48:58;;;;;;;99.65;55.72;;;;;;;;;;5044240;28;21264;-75
2023/04/23 04:51:23;;;;;;;109.80;60.83;;;;;;;;;;5022742;28;20035;-75
2023/04/23 04:53:48;;;;;;;98.05;54.88;;;;;;;;;;5022419;28;20032;-75
2023/04/23 04:56:16;;;;;;;96.82;54.83;;;;;;;;;;5043640;28;21175;-75
2023/04/23 04:58:41;;;;;;;98.28;54.33;;;;;;;;;;5044396;28;20067;-75
2023/04/23 05:01:07;;;;;;;91.80;50.67;;;;;;;;;;5044592;28;20972;-75
2023/04/23 05:03:32;;;;;;;94.32;52.22;;;;;;;;;;5043347;28;20091;-74
2023/04/23 05:05:57;;;;;;;91.57;53.33;;;;;;;;;;5044569;28;20043;-74
2023/04/23 05:08:25;;;;;;;84.88;50.72;;;;;;;;;;5046645;28;20441;-74
2023/04/23 05:10:50;;;;;;;89.90;51.03;;;;;;;;;;5022990;28;20046;-75
2023/04/23 05:13:18;;;;;;;84.32;50.00;;;;;;;;;;5045696;28;20035;-75
2023/04/23 05:15:44;;;;;;;84.78;48.97;;;;;;;;;;5039877;28;20033;-75
2023/04/23 05:18:10;;;;;;;80.72;49.60;;;;;;;;;;5042466;28;23539;-75
2023/04/23 05:20:35;;;;;;;80.18;47.15;;;;;;;;;;5021017;28;20024;-70
2023/04/23 05:23:01;;;;;;;83.43;49.63;;;;;;;;;;5046112;28;20062;-71
2023/04/23 05:25:28;;;;;;;80.32;47.40;;;;;;;;;;5025512;28;20024;-71
2023/04/23 05:27:53;;;;;;;83.53;47.45;;;;;;;;;;5047091;28;20089;-70
2023/04/23 05:30:18;;;;;;;82.07;47.67;;;;;;;;;;5047984;28;20639;-70
2023/04/23 05:32:44;;;;;;;82.68;45.92;;;;;;;;;;5044274;28;24967;-69
2023/04/23 05:35:09;;;;;;;71.78;44.40;;;;;;;;;;5043900;28;20134;-71
2023/04/23 05:37:35;;;;;;;64.95;41.22;;;;;;;;;;5048157;28;20048;-70
2023/04/23 05:40:01;;;;;;;77.05;44.00;;;;;;;;;;5041980;28;20028;-70
2023/04/23 05:42:29;;;;;;;71.47;41.78;;;;;;;;;;5044498;28;20036;-70
2023/04/23 05:44:54;;;;;;;69.50;41.70;;;;;;;;;;5044244;28;20035;-70
2023/04/23 05:47:22;;;;;;;75.18;42.63;;;;;;;;;;5046282;28;20088;-70
2023/04/23 05:49:47;;;;;;;73.78;42.60;;;;;;;;;;5046715;28;20040;-70
2023/04/23 05:52:13;;;;;;;72.20;41.65;;;;;;;;;;5041878;28;20032;-72
2023/04/23 05:54:40;;;;;;;61.95;37.90;;;;;;;;;;5044257;28;20155;-71
2023/04/23 05:57:06;;;;;;;54.00;34.25;;;;;;;;;;5045515;28;20044;-71
2023/04/23 05:59:33;;;;;;;52.53;33.75;;;;;;;;;;5022723;28;20028;-70
2023/04/23 06:01:59;;;;;;;47.75;31.67;;;;;;;;;;5042137;28;20155;-70
2023/04/23 06:04:24;;;;;;;45.70;29.92;;;;;;;;;;5042010;28;20036;-71
2023/04/23 06:06:54;;;;;;;45.55;31.52;;;;;;;;;;5040637;28;20475;-71
2023/04/23 06:09:19;;;;;;;51.67;33.00;;;;;;;;;;5038457;28;20071;-71
2023/04/23 06:11:45;;;;;;;55.90;33.75;;;;;;;;;;5042312;28;20064;-71
2023/04/23 06:14:11;;;;;;;56.33;33.40;;;;;;;;;;5047320;28;20033;-71
2023/04/23 06:16:37;;;;;;;52.65;30.52;;;;;;;;;;5050055;28;20044;-71
2023/04/23 06:19:02;;;;;;;50.90;33.15;;;;;;;;;;5048389;28;20883;-70
2023/04/23 06:21:31;;;;;;;57.47;33.35;;;;;;;;;;5033443;28;20038;-71
2023/04/23 06:23:56;;;;;;;51.97;31.83;;;;;;;;;;5048399;28;20043;-69
2023/04/23 06:26:22;;;;;;;49.63;30.63;;;;;;;;;;5065470;28;20036;-69
2023/04/23 06:28:47;;;;;;;50.40;32.30;;;;;;;;;;5063732;28;20100;-70
2023/04/23 06:31:15;;;;;;;52.03;31.50;;;;;;;;;;5067379;28;20040;-71
2023/04/23 06:33:40;;;;;;;51.78;30.13;;;;;;;;;;5065698;28;20105;-70
2023/04/23 06:36:06;;;;;;;41.45;26.63;;;;;;;;;;5030606;28;20028;-73
2023/04/23 06:38:32;;;;;;;40.70;26.77;;;;;;;;;;5065941;28;20437;-72
2023/04/23 06:40:57;;;;;;;29.38;20.23;;;;;;;;;;5046962;28;20086;-71
2023/04/23 06:43:23;;;;;;;32.00;21.13;;;;;;;;;;5058818;28;20126;-70
2023/04/23 06:45:48;;;;;;;36.22;23.15;;;;;;;;;;5048075;28;20197;-71
2023/04/23 06:48:13;;;;;;;28.85;20.48;;;;;;;;;;5037959;28;20147;-72
2023/04/23 06:50:39;;;;;;;30.20;19.17;;;;;;;;;;5059529;28;20024;-69
2023/04/23 06:53:04;;;;;;;34.42;21.67;;;;;;;;;;5023972;28;20039;-70
2023/04/23 06:55:30;;;;;;;30.92;19.58;;;;;;;;;;5060343;28;20036;-68
2023/04/23 06:57:55;;;;;;;22.35;16.08;;;;;;;;;;5060885;28;20040;-70
2023/04/23 07:00:21;;;;;;;28.42;17.88;;;;;;;;;;5063612;28;20075;-65
2023/04/23 07:02:49;;;;;;;29.80;18.20;;;;;;;;;;5058932;28;20037;-69
2023/04/23 07:05:15;;;;;;;24.58;17.13;;;;;;;;;;5059506;28;20040;-69
2023/04/23 07:07:42;;;;;;;24.13;17.98;;;;;;;;;;5047648;28;20100;-69
2023/04/23 07:10:07;;;;;;;22.90;17.33;;;;;;;;;;5042029;28;20032;-70
2023/04/23 07:12:33;;;;;;;17.77;14.07;;;;;;;;;;5058547;28;20043;-69
2023/04/23 07:14:58;;;;;;;17.73;13.90;;;;;;;;;;5038358;28;20036;-70
2023/04/23 07:17:24;;;;;;;15.32;13.20;;;;;;;;;;5061059;28;20078;-71
2023/04/23 07:19:50;;;;;;;20.08;12.85;;;;;;;;;;5040269;28;20774;-70
2023/04/23 07:22:15;;;;;;;22.10;14.77;;;;;;;;;;5057317;28;20039;-70
2023/04/23 07:24:40;;;;;;;19.13;13.55;;;;;;;;;;5018186;28;20166;-70
2023/04/23 07:27:06;;;;;;;22.08;14.43;;;;;;;;;;5039410;28;20103;-71
2023/04/23 07:29:34;;;;;;;16.85;13.48;;;;;;;;;;5059814;28;20040;-70
2023/04/23 07:31:59;;;;;;;18.88;14.57;;;;;;;;;;5042972;28;20032;-69
2023/04/23 07:34:24;;;;;;;19.55;13.13;;;;;;;;;;5056575;28;20039;-71
2023/04/23 07:36:55;;;;;;;18.45;12.93;;;;;;;;;;5037570;28;20063;-67
2023/04/23 07:39:20;;;;;;;16.70;11.57;;;;;;;;;;5053909;28;20043;-71
2023/04/23 07:41:47;;;;;;;18.33;11.45;;;;;;;;;;5059433;28;20040;-70
2023/04/23 07:44:15;;;;;;;16.25;11.88;;;;;;;;;;5059243;28;20036;-69
2023/04/23 07:46:40;;;;;;;14.02;9.30;;;;;;;;;;5034144;28;20780;-70
2023/04/23 07:49:07;;;;;;;17.38;11.60;;;;;;;;;;5058951;28;20036;-71
2023/04/23 07:51:33;;;;;;;13.40;9.70;;;;;;;;;;5060074;28;20060;-70
2023/04/23 07:54:00;;;;;;;13.85;8.45;;;;;;;;;;5056252;28;20041;-72
2023/04/23 07:56:26;;;;;;;12.82;8.75;;;;;;;;;;5058690;28;20039;-70
2023/04/23 07:58:52;;;;;;;14.68;9.23;;;;;;;;;;5060470;28;20043;-68
2023/04/23 08:01:18;;;;;;;15.38;9.88;;;;;;;;;;5058185;28;20035;-68
2023/04/23 08:03:45;;;;;;;14.30;9.23;;;;;;;;;;5060568;28;20044;-69
2023/04/23 08:06:19;;;;;;;22.50;10.35;;;;;;;;;;5022822;27;20411;-70
2023/04/23 08:08:44;;;;;;;12.60;8.13;;;;;;;;;;5022193;28;21883;-69
2023/04/23 08:11:10;;;;;;;11.57;7.47;;;;;;;;;;5054226;28;20033;-68
2023/04/23 08:13:35;;;;;;;11.65;7.53;;;;;;;;;;5037974;28;20112;-69
2023/04/23 08:16:04;;;;;;;12.75;8.40;;;;;;;;;;5052860;28;20850;-70
2023/04/23 08:18:29;;;;;;;18.60;8.35;;;;;;;;;;5024185;28;20036;-68
2023/04/23 08:20:56;;;;;;;16.08;8.52;;;;;;;;;;5023843;28;20029;-67
2023/04/23 08:23:21;;;;;;;12.60;6.57;;;;;;;;;;5021341;28;20706;-67
2023/04/23 08:25:46;;;;;;;14.73;7.18;;;;;;;;;;5020393;28;20049;-68
2023/04/23 08:28:14;;;;;;;10.48;5.80;;;;;;;;;;5019113;28;20033;-67
2023/04/23 08:30:40;;;;;;;14.50;6.95;;;;;;;;;;5049656;28;20064;-68
2023/04/23 08:33:05;;;;;;;14.60;5.43;;;;;;;;;;5050392;28;20279;-69
2023/04/23 08:35:31;;;;;;;11.70;6.40;;;;;;;;;;5018485;28;20057;-69
2023/04/23 08:37:56;;;;;;;10.43;5.45;;;;;;;;;;5015847;28;20033;-70
2023/04/23 08:40:21;;;;;;;8.95;4.70;;;;;;;;;;5017438;28;20037;-64
2023/04/23 08:42:59;;;;;;;11.05;4.47;;;;;;;;;;5033988;28;20041;-63
2023/04/23 08:45:27;;;;;;;11.77;5.18;;;;;;;;;;5022298;28;20052;-68
2023/04/23 08:47:56;;;;;;;9.57;4.03;;;;;;;;;;5022383;28;20036;-69
2023/04/23 08:50:23;;;;;;;10.30;3.35;;;;;;;;;;5049127;28;20044;-67
2023/04/23 08:52:55;;;;;;;11.48;4.32;;;;;;;;;;5019653;28;20037;-69
2023/04/23 08:55:23;;;;;;;10.27;5.35;;;;;;;;;;5052425;28;20195;-69
2023/04/23 08:57:49;;;;;;;8.68;3.28;;;;;;;;;;5020004;28;20063;-69
2023/04/23 09:00:15;;;;;;;12.85;4.05;;;;;;;;;;5027162;28;20721;-70
2023/04/23 09:02:42;;;;;;;10.45;3.53;;;;;;;;;;5050953;28;20033;-68
2023/04/23 09:05:07;;;;;;;12.15;4.07;;;;;;;;;;5014811;28;20064;-67
2023/04/23 09:07:33;;;;;;;11.80;4.38;;;;;;;;;;5018638;28;20199;-66
2023/04/23 09:09:59;;;;;;;12.35;4.78;;;;;;;;;;5017959;28;20110;-66
2023/04/23 09:12:25;;;;;;;12.50;4.35;;;;;;;;;;5017664;28;20039;-68
2023/04/23 09:14:50;;;;;;;11.40;4.55;;;;;;;;;;5045152;28;20030;-67
2023/04/23 09:17:16;;;;;;;11.32;4.47;;;;;;;;;;5035441;28;20037;-67
2023/04/23 09:19:44;;;;;;;12.43;5.05;;;;;;;;;;5002745;28;20045;-65
2023/04/23 09:22:09;;;;;;;11.20;5.10;;;;;;;;;;5003650;28;20032;-66
2023/04/23 09:24:35;;;;;;;12.85;5.63;;;;;;;;;;5011411;28;20478;-65
2023/04/23 09:27:00;;;;;;;13.10;5.75;;;;;;;;;;5005040;28;20047;-66
2023/04/23 09:29:25;;;;;;;10.65;5.20;;;;;;;;;;5037042;28;20044;-67
2023/04/23 09:31:54;;;;;;;13.30;5.70;;;;;;;;;;5005784;28;20025;-66
2023/04/23 09:34:20;;;;;;;12.63;5.82;;;;;;;;;;5008719;28;20221;-66
2023/04/23 09:36:49;;;;;;;12.70;6.00;;;;;;;;;;5036214;28;20043;-66
2023/04/23 09:39:15;;;;;;;13.70;6.10;;;;;;;;;;5003830;28;22383;-67
2023/04/23 09:41:41;;;;;;;14.45;6.55;;;;;;;;;;5004692;28;20045;-69
2023/04/23 09:44:07;;;;;;;15.35;6.70;;;;;;;;;;5010186;28;20050;-65
2023/04/23 09:46:33;;;;;;;13.43;6.10;;;;;;;;;;5007423;28;23307;-69
2023/04/23 09:48:59;;;;;;;11.77;5.95;;;;;;;;;;5035741;28;20033;-65
2023/04/23 09:51:27;;;;;;;12.82;5.65;;;;;;;;;;5023854;28;20040;-65
2023/04/23 09:53:52;;;;;;;13.45;6.32;;;;;;;;;;5005986;28;20536;-66
2023/04/23 09:56:18;;;;;;;11.93;5.47;;;;;;;;;;5035104;28;20025;-68
2023/04/23 09:58:44;;;;;;;10.90;5.90;;;;;;;;;;5007569;28;20041;-67
2023/04/23 10:01:09;;;;;;;12.98;6.70;;;;;;;;;;5032872;28;20478;-65
2023/04/23 10:03:35;;;;;;;12.63;6.70;;;;;;;;;;5003944;28;20048;-65
2023/04/23 10:06:00;;;;;;;16.02;6.95;;;;;;;;;;5022733;28;23579;-67
2023/04/23 10:08:26;;;;;;;16.15;6.70;;;;;;;;;;5016494;28;20037;-68
2023/04/23 10:10:51;;;;;;;12.23;6.47;;;;;;;;;;5007044;28;20625;-65
2023/04/23 10:13:17;;;;;;;11.77;6.25;;;;;;;;;;5007719;28;20091;-66
2023/04/23 10:15:45;;;;;;;12.23;6.68;;;;;;;;;;5005091;28;20065;-67
2023/04/23 10:18:13;;;;;;;10.27;5.65;;;;;;;;;;5003478;28;20034;-66
2023/04/23 10:20:39;;;;;;;13.27;6.10;;;;;;;;;;5004498;28;20516;-67
2023/04/23 10:23:04;;;;;;;13.25;6.38;;;;;;;;;;5009297;28;20769;-67
2023/04/23 10:25:30;;;;;;;16.80;6.65;;;;;;;;;;5005314;28;20041;-65
2023/04/23 10:27:57;;;;;;;18.83;7.05;;;;;;;;;;5005152;28;20049;-64
2023/04/23 10:30:24;;;;;;;14.70;6.78;;;;;;;;;;5004919;28;20040;-66
2023/04/23 10:32:49;;;;;;;14.38;6.05;;;;;;;;;;5010569;28;20124;-67
2023/04/23 10:35:15;;;;;;;17.83;7.00;;;;;;;;;;5003933;28;20344;-66
2023/04/23 10:37:40;;;;;;;14.00;6.03;;;;;;;;;;5035462;28;20036;-67
2023/04/23 10:40:10;;;;;;;15.68;6.90;;;;;;;;;;5004115;28;20103;-67
2023/04/23 10:42:35;;;;;;;14.27;7.63;;;;;;;;;;5034499;28;20036;-68
2023/04/23 10:45:01;;;;;;;14.68;7.78;;;;;;;;;;5004343;28;20276;-72
2023/04/23 10:47:26;;;;;;;21.40;9.07;;;;;;;;;;5002531;28;20144;-71
2023/04/23 10:49:51;;;;;;;12.48;7.07;;;;;;;;;;5009430;28;20033;-67
2023/04/23 10:52:17;;;;;;;12.52;7.07;;;;;;;;;;5002886;28;20521;-68
2023/04/23 10:54:47;;;;;;;10.55;6.15;;;;;;;;;;5005762;28;20029;-68
2023/04/23 10:57:12;;;;;;;12.13;5.20;;;;;;;;;;5035219;28;20036;-69
2023/04/23 10:59:39;;;;;;;12.10;5.20;;;;;;;;;;5033893;28;20702;-69
2023/04/23 11:02:06;;;;;;;11.52;5.40;;;;;;;;;;5002777;28;20445;-68
2023/04/23 11:04:34;;;;;;;9.68;3.83;;;;;;;;;;5003848;28;20045;-70
2023/04/23 11:07:04;;;;;;;9.60;3.55;;;;;;;;;;5002872;28;20663;-67
2023/04/23 11:09:30;;;;;;;10.38;3.97;;;;;;;;;;5003782;28;20063;-66
2023/04/23 11:12:01;;;;;;;9.18;3.42;;;;;;;;;;5003086;28;20293;-67
2023/04/23 11:14:48;;;;;;;10.35;3.70;;;;;;;;;;5000484;28;20406;-67
2023/04/23 11:17:15;;;;;;;13.70;3.15;;;;;;;;;;5000765;28;20506;-69
2023/04/23 11:19:41;;;;;;;12.95;3.08;;;;;;;;;;5005675;28;20037;-69
2023/04/23 11:22:13;;;;;;;9.95;3.00;;;;;;;;;;5004226;28;20205;-70
2023/04/23 11:24:42;;;;;;;10.38;2.97;;;;;;;;;;5001133;28;20122;-68
2023/04/23 11:27:10;;;;;;;9.25;2.80;;;;;;;;;;5001229;28;20041;-68
2023/04/23 11:29:37;;;;;;;12.95;3.60;;;;;;;;;;5022298;28;20212;-68
2023/04/23 11:32:04;;;;;;;12.02;4.22;;;;;;;;;;5001982;28;20045;-70
2023/04/23 11:34:30;;;;;;;17.13;4.90;;;;;;;;;;5000257;28;20533;-66
2023/04/23 11:36:57;;;;;;;13.60;3.97;;;;;;;;;;5001623;28;20532;-66
2023/04/23 11:39:25;;;;;;;14.52;4.10;;;;;;;;;;5032219;28;20291;-68
2023/04/23 11:41:51;;;;;;;18.08;4.43;;;;;;;;;;5035718;28;22493;-69
2023/04/23 11:44:16;;;;;;;12.40;4.07;;;;;;;;;;5030789;28;20206;-68
2023/04/23 11:46:42;;;;;;;8.95;3.72;;;;;;;;;;4997840;28;20031;-63
2023/04/23 11:49:09;;;;;;;9.18;3.95;;;;;;;;;;4997132;28;20026;-68
2023/04/23 11:51:40;;;;;;;11.85;3.72;;;;;;;;;;5003863;28;20037;-67
2023/04/23 11:54:06;;;;;;;11.45;3.47;;;;;;;;;;4998957;28;20102;-70
2023/04/23 11:56:34;;;;;;;9.18;3.55;;;;;;;;;;5001133;28;20138;-74
2023/04/23 11:59:03;;;;;;;9.77;3.58;;;;;;;;;;5007179;28;20330;-65
2023/04/23 12:01:44;;;;;;;10.15;4.90;;;;;;;;;;5006154;28;20030;-73
2023/04/23 12:04:10;;;;;;;14.25;4.25;;;;;;;;;;5004869;28;20033;-71
2023/04/23 12:06:35;;;;;;;9.63;3.50;;;;;;;;;;5004731;28;20498;-74
2023/04/23 12:09:00;;;;;;;11.05;4.28;;;;;;;;;;5002671;28;20033;-68
2023/04/23 12:11:30;;;;;;;11.80;3.75;;;;;;;;;;5003350;28;20029;-69
2023/04/23 12:13:56;;;;;;;14.55;4.40;;;;;;;;;;5005161;28;20087;-69
2023/04/23 12:16:34;;;;;;;10.93;3.72;;;;;;;;;;5003364;28;20041;-68
2023/04/23 12:19:00;;;;;;;12.40;3.83;;;;;;;;;;5002125;28;20048;-69
2023/04/23 12:21:28;;;;;;;10.45;3.40;;;;;;;;;;5002140;28;20029;-68
2023/04/23 12:23:56;;;;;;;8.57;3.60;;;;;;;;;;5003702;28;20048;-67
2023/04/23 12:26:23;;;;;;;11.15;3.97;;;;;;;;;;5002534;28;20068;-69
2023/04/23 12:28:49;;;;;;;10.73;3.50;;;;;;;;;;5003926;28;20033;-68
2023/04/23 12:31:23;;;;;;;8.82;3.80;;;;;;;;;;5004733;28;20568;-68
2023/04/23 12:33:57;;;;;;;9.02;3.80;;;;;;;;;;5001569;28;20536;-69
2023/04/23 12:36:25;;;;;;;11.23;3.50;;;;;;;;;;4987207;28;20034;-69
2023/04/23 12:38:50;;;;;;;10.50;3.30;;;;;;;;;;4981292;28;20080;-69
2023/04/23 12:41:19;;;;;;;10.75;3.25;;;;;;;;;;4980710;28;20038;-67
2023/04/23 12:43:47;;;;;;;9.15;3.22;;;;;;;;;;4993638;28;20152;-69
2023/04/23 12:46:13;;;;;;;10.88;3.50;;;;;;;;;;5031521;28;20041;-68
2023/04/23 12:48:38;;;;;;;10.25;3.28;;;;;;;;;;5004074;28;20052;-68
2023/04/23 12:51:05;;;;;;;14.48;3.70;;;;;;;;;;5032764;28;20032;-67
2023/04/23 12:53:30;;;;;;;9.40;3.65;;;;;;;;;;5012159;28;20036;-68
2023/04/23 12:55:56;;;;;;;8.82;3.67;;;;;;;;;;5016171;28;20124;-68
2023/04/23 12:58:22;;;;;;;10.63;3.53;;;;;;;;;;5008506;28;20058;-67
2023/04/23 13:00:47;;;;;;;11.73;3.80;;;;;;;;;;5021601;28;20116;-68
2023/04/23 13:03:16;;;;;;;10.75;3.55;;;;;;;;;;5011269;28;21042;-68
2023/04/23 13:05:44;;;;;;;8.93;3.78;;;;;;;;;;5016080;28;20600;-69
2023/04/23 13:08:10;;;;;;;11.38;4.63;;;;;;;;;;5008657;28;20030;-67
2023/04/23 13:10:35;;;;;;;10.75;4.35;;;;;;;;;;5009055;28;20037;-68
2023/04/23 13:13:01;;;;;;;11.23;4.20;;;;;;;;;;5036652;28;20041;-70
2023/04/23 13:15:26;;;;;;;10.95;4.88;;;;;;;;;;5021159;28;20266;-69
2023/04/23 13:17:53;;;;;;;11.65;4.70;;;;;;;;;;4977027;28;20044;-67
2023/04/23 13:20:21;;;;;;;13.75;5.40;;;;;;;;;;4985046;28;21614;-68
2023/04/23 13:22:46;;;;;;;13.40;5.57;;;;;;;;;;4984912;28;20108;-68
2023/04/23 13:25:12;;;;;;;13.13;5.00;;;;;;;;;;4983003;28;20038;-67
2023/04/23 13:27:38;;;;;;;14.68;4.93;;;;;;;;;;4986078;28;21870;-69
2023/04/23 13:30:04;;;;;;;11.02;4.88;;;;;;;;;;4988463;28;20554;-68
2023/04/23 13:32:31;;;;;;;12.07;5.22;;;;;;;;;;4987005;28;20877;-69
2023/04/23 13:34:59;;;;;;;12.48;4.55;;;;;;;;;;4986769;28;20037;-68
2023/04/23 13:37:26;;;;;;;13.15;5.88;;;;;;;;;;4983491;28;20061;-68
2023/04/23 13:39:56;;;;;;;16.65;5.57;;;;;;;;;;4983069;28;20045;-69
2023/04/23 13:42:22;;;;;;;11.60;5.40;;;;;;;;;;4986426;28;20072;-68
2023/04/23 13:44:47;;;;;;;15.07;5.63;;;;;;;;;;4987894;28;20054;-68
2023/04/23 13:47:12;;;;;;;19.90;4.30;;;;;;;;;;4976086;28;20034;-70
2023/04/23 13:49:37;;;;;;;27.58;4.95;;;;;;;;;;5015755;28;20043;-70
2023/04/23 13:52:05;;;;;;;29.67;5.20;;;;;;;;;;5008666;28;20041;-69
2023/04/23 13:54:30;;;;;;;32.20;4.85;;;;;;;;;;5004246;28;20038;-71
2023/04/23 13:56:56;;;;;;;21.27;3.17;;;;;;;;;;5036251;28;20080;-69
2023/04/23 13:59:21;;;;;;;26.85;4.05;;;;;;;;;;5006286;28;20052;-70
2023/04/23 14:01:50;;;;;;;16.60;3.15;;;;;;;;;;5001404;28;20618;-69
2023/04/23 14:04:15;;;;;;;16.67;2.63;;;;;;;;;;5015999;28;20037;-71
2023/04/23 14:06:41;;;;;;;15.75;3.08;;;;;;;;;;5005059;28;20417;-69
2023/04/23 14:09:09;;;;;;;14.57;2.92;;;;;;;;;;5004259;28;20044;-67
2023/04/23 14:11:34;;;;;;;12.32;2.53;;;;;;;;;;5035287;28;20033;-66
2023/04/23 14:14:02;;;;;;;12.40;2.50;;;;;;;;;;5015641;28;20044;-67
2023/04/23 14:16:27;;;;;;;11.25;2.60;;;;;;;;;;5006057;28;20109;-67